Aérodrome :
LOGIN :

S'inscrire | Disclaimer

   EN    FR    IT 

 










Légende :    VFR   VFR Marginal   IFR   IFR Intensif   IFR Très Intensif
Visi : 
Plafond : 
>= 8 km
>= 3000ft
5 à 8 km
1000 à 3000 ft
1500m à 5 km
500 à 1000 ft
800 à 1500m
200 à 500 ft
< 800m
< 200 ft
Symboles :   Orages  Brouillard  Fortes neiges  Fortes précipitations  Vent > 20 kt
SIGMETs :   Divers  Orages  Givrage  Turbulence  Onde Orograph.  Cendres Volcan.







- Altitude de l'aérodrome : 622 ft
- Code IATA : BRS
- Voir les cartes d'approche


EGGD - Bristol Int.

DERNIER METAR :
  • 220120Z AUTO 34006KT 300V010 9999 NCD 09/05 Q1031

METARs EXPIRÉS :
  • 220050Z AUTO 34006KT 9999 NCD 09/04 Q1031
  • 220020Z AUTO 36007KT 9999 NCD 10/04 Q1031
  • 212350Z AUTO 35008KT 9999 NCD 10/04 Q1031
  • 212320Z AUTO 01007KT 9999 NCD 11/04 Q1031
  • 212250Z AUTO 01008KT 9999 NCD 11/04 Q1031

TAF TAF EGGD
Valide du 22 à 00h jusqu'au 23 à 00h UTC


212257Z 2200/2224 36008KT CAVOK
ATIS : +44 1275 473 666
Pas de NOTAMs connus pour ce terrain.



MET'MAP, la Météo Aéronautique d'un coup d'oeil ! - Copyright ORBIFLY Décembre 2007 - Disclaimer

ORBIFLY MET'MAP TEAM :

Programmation & Développement : Alexandra Zaïnal
Conception & Développement : Baudouin d'Aumeries
Co-Programmation & Développement : Marc-Olivier Méhu
Soutien technique & logistique : Manuel Goepfert

Contact : metmap@orbifly.com




SOURCES & CREDITS :

   NOAA